메인 페이지
METAR-TAF:

METAR-TAF

공항 :

아타튀르크 국제공항

이스탄불 이스탄불, 터키

위도: 40-58N, 경도: 028-49E, 고도: 48m

현재 날씨관측

예보는 32분 전, 14:20시(UTC)에 발표되었습니다.
남서6kt
온도 11°C
습도 50%
기압 1017 hPa
시정 10km 이상
1500m 미만 상공 구름 및 적란운 없음

METAR: LTBA 251420Z 22006KT CAVOK 11/01 Q1017 NOSIG RMK RWY17L 22007KT RWY05 24005KT RWY23 24007KT

시각: 17:52 (14:52 UTC)

예보

예보는 4 시간 12분 전, 10:40시(UTC)에 발표되었습니다.
예보 대상 시간: 25일 12시부터 26일 18시까지 (UTC)
8kt
시정 10km 이상
1500m 미만 상공 구름 및 적란운 없음
전환 중
26일 06시부터 26일 09시까지 (UTC)
남남서20kt, 순간 최대 풍속 35kt

TAF: LTBA 251040Z 2512/2618 18008KT CAVOK BECMG 2606/2609 21020G35KT

4,000개 이상의 공항 관측 자료 및 예보 (METAR 및 TAF 보고).

지도상에서 검색 가능한 기상관측소가 노란 점과 빨간 점으로 표시되어 있습니다.

기상관측소 명을 보려면 표시 위로 마우스를 이동하세요.

날씨 관측과 예보를 보려면 클릭하세요.

지도 변경 : 확대하려면 엑스 표시가 있는 녹색 버튼, 축소하려면 빼기 표시가 있는 녹색 버튼, 다음 페이지의 지도를 보려면 녹색 화살표를 클릭하세요.


METAR-TAF: